aviador You're here:

UKBB Decoded Metar

KIEV in UKRAINE
Report Time2017-11-23 22:00:00
UTC Time2017-11-23 22:15:56
Flight Rules mvfr MVFR
Wind240° at 2 kt
W.Decomp.*RWY 18: 1.1 kt HW 1.6 kt RCW
W.Rank240° ranks 19
Current wind is below 240° avg. (6.5)
Visibility6000 m
Phenomena:N/A
Clouds:N/A
CeilingNone
Temp-6°C (ISA -20)
Dew Point-6°C (100% RH)
AAT-9.4°C
QNH1022 hPa
Density Alt-2,365 ft
Elevation390 ft
Report Wrong Elevation
Raw Report
UKBB 232200Z 24001MPS 6000 NSC M06/M06 Q1022 R36R/190055
R36L/CLRD// TEMPO 2000 BR=

Extra information for UKBB:More info

Metar Taf Metar & Taf Last 4 Metars F.Rules Stats Wind Profile Meteogram Temp Stats Airport Information Weather charts Add Link Nearby VenuesMetar ALERT Operation Metar Decoded Social comments